Time;durP1;ratioP1;P1;durP2;ratioP2;P2;SDS_P1;SDS_P2;PMS_P1;PMS_P2;Temp;Humidity;BMP_temperature;BMP_pressure;BME280_temperature;BME280_humidity;BME280_pressure;Samples;Min_cycle;Max_cycle;Signal;HPM_P1;HPM_P2
2022/02/21 00:19:52;;;;;;;1.50;1.40;;;;;;;;;;5146349;27;21055;-65
2022/02/21 00:22:18;;;;;;;1.40;1.30;;;;;;;;;;5177235;27;20453;-65
2022/02/21 00:24:44;;;;;;;1.35;1.25;;;;;;;;;;5180009;27;20061;-67
2022/02/21 00:27:11;;;;;;;1.52;1.42;;;;;;;;;;5180013;27;20105;-67
2022/02/21 00:29:37;;;;;;;1.42;1.33;;;;;;;;;;5160894;27;20442;-70
2022/02/21 00:32:03;;;;;;;1.50;1.40;;;;;;;;;;5161140;27;20082;-68
2022/02/21 00:34:29;;;;;;;1.37;1.30;;;;;;;;;;5180045;27;20073;-68
2022/02/21 00:36:55;;;;;;;1.35;1.20;;;;;;;;;;5179748;27;20655;-68
2022/02/21 00:39:21;;;;;;;1.67;1.58;;;;;;;;;;5180101;27;20469;-73
2022/02/21 00:41:47;;;;;;;1.55;1.45;;;;;;;;;;5179915;27;20175;-72
2022/02/21 00:44:13;;;;;;;1.58;1.48;;;;;;;;;;5179957;27;20093;-72
2022/02/21 00:46:40;;;;;;;1.50;1.40;;;;;;;;;;5160820;27;20098;-72
2022/02/21 00:49:06;;;;;;;1.60;1.50;;;;;;;;;;5161283;27;20120;-68
2022/02/21 00:51:32;;;;;;;1.67;1.58;;;;;;;;;;5179798;27;20066;-68
2022/02/21 00:53:58;;;;;;;2.15;1.45;;;;;;;;;;5179973;27;20102;-68
2022/02/21 00:56:24;;;;;;;1.48;1.37;;;;;;;;;;5178124;27;20070;-69
2022/02/21 00:58:50;;;;;;;1.50;1.40;;;;;;;;;;5160786;27;20169;-69
2022/02/21 01:01:16;;;;;;;2.45;1.50;;;;;;;;;;5179775;27;20093;-68
2022/02/21 01:03:43;;;;;;;1.73;1.45;;;;;;;;;;5179995;27;20506;-68
2022/02/21 01:06:09;;;;;;;2.00;1.80;;;;;;;;;;5179585;27;20089;-68
2022/02/21 01:08:35;;;;;;;2.22;1.62;;;;;;;;;;5179916;27;20097;-68
2022/02/21 01:11:01;;;;;;;2.17;1.90;;;;;;;;;;5179833;27;20081;-69
2022/02/21 01:13:27;;;;;;;1.60;1.50;;;;;;;;;;5179876;27;20095;-68
2022/02/21 01:15:53;;;;;;;4.05;1.70;;;;;;;;;;5179961;27;20090;-67
2022/02/21 01:18:21;;;;;;;1.73;1.62;;;;;;;;;;5160699;27;20093;-68
2022/02/21 01:20:47;;;;;;;1.67;1.58;;;;;;;;;;5160663;27;20177;-68
2022/02/21 01:23:13;;;;;;;1.50;1.40;;;;;;;;;;5179707;27;20261;-68
2022/02/21 01:25:40;;;;;;;3.22;1.75;;;;;;;;;;5179635;27;20085;-68
2022/02/21 01:28:06;;;;;;;2.10;1.70;;;;;;;;;;5160748;27;20488;-68
2022/02/21 01:30:32;;;;;;;1.67;1.58;;;;;;;;;;5160445;27;20083;-67
2022/02/21 01:32:58;;;;;;;1.50;1.40;;;;;;;;;;5179363;27;20085;-68
2022/02/21 01:35:24;;;;;;;2.00;1.75;;;;;;;;;;5179528;27;20097;-68
2022/02/21 01:37:51;;;;;;;1.80;1.70;;;;;;;;;;5179769;27;20495;-66
2022/02/21 01:40:18;;;;;;;1.95;1.70;;;;;;;;;;5143259;27;20094;-67
2022/02/21 01:42:44;;;;;;;1.83;1.60;;;;;;;;;;5179474;27;20141;-67
2022/02/21 01:45:10;;;;;;;1.80;1.70;;;;;;;;;;5179431;27;20149;-67
2022/02/21 01:47:36;;;;;;;1.75;1.65;;;;;;;;;;5179378;27;20562;-65
2022/02/21 01:50:03;;;;;;;1.70;1.60;;;;;;;;;;5179118;27;20074;-68
2022/02/21 01:52:29;;;;;;;1.70;1.60;;;;;;;;;;5179567;27;20453;-67
2022/02/21 01:54:55;;;;;;;1.95;1.70;;;;;;;;;;5179569;27;20061;-67
2022/02/21 01:57:21;;;;;;;1.90;1.65;;;;;;;;;;5179458;27;20163;-68
2022/02/21 01:59:47;;;;;;;1.50;1.40;;;;;;;;;;5160355;27;20098;-66
2022/02/21 02:02:13;;;;;;;4.15;1.70;;;;;;;;;;5179366;27;20074;-67
2022/02/21 02:04:39;;;;;;;1.83;1.73;;;;;;;;;;5160457;27;20080;-67
2022/02/21 02:07:06;;;;;;;1.75;1.65;;;;;;;;;;5179665;27;20066;-67
2022/02/21 02:09:32;;;;;;;2.17;1.70;;;;;;;;;;5179561;27;20086;-67
2022/02/21 02:11:58;;;;;;;1.87;1.75;;;;;;;;;;5160341;27;20082;-67
2022/02/21 02:14:34;;;;;;;1.95;1.70;;;;;;;;;;5160301;27;20436;-67
2022/02/21 02:17:05;;;;;;;2.87;1.70;;;;;;;;;;5179274;27;20176;-67
2022/02/21 02:19:32;;;;;;;2.53;2.22;;;;;;;;;;5179280;27;20600;-66
2022/02/21 02:22:07;;;;;;;1.90;1.80;;;;;;;;;;5179200;27;20065;-67
2022/02/21 02:24:35;;;;;;;2.30;2.10;;;;;;;;;;5160639;27;20101;-68
2022/02/21 02:27:01;;;;;;;1.70;1.60;;;;;;;;;;5177124;27;20072;-67
2022/02/21 02:29:27;;;;;;;1.70;1.60;;;;;;;;;;5179207;27;20086;-68
2022/02/21 02:31:55;;;;;;;1.90;1.80;;;;;;;;;;5178662;27;20062;-65
2022/02/21 02:34:21;;;;;;;2.30;1.83;;;;;;;;;;5160089;27;20101;-67
2022/02/21 02:36:48;;;;;;;2.83;1.67;;;;;;;;;;5160107;27;20171;-65
2022/02/21 02:39:17;;;;;;;2.15;1.77;;;;;;;;;;5179340;27;20090;-66
2022/02/21 02:41:44;;;;;;;2.20;2.00;;;;;;;;;;5179099;27;20105;-65
2022/02/21 02:44:11;;;;;;;2.00;1.80;;;;;;;;;;5179249;27;20081;-65
2022/02/21 02:46:37;;;;;;;1.95;1.75;;;;;;;;;;5160312;27;20175;-67
2022/02/21 02:49:04;;;;;;;1.77;1.67;;;;;;;;;;5179263;27;20062;-67
2022/02/21 02:51:30;;;;;;;2.30;2.10;;;;;;;;;;5160392;27;20086;-67
2022/02/21 02:53:56;;;;;;;2.12;1.90;;;;;;;;;;5178212;27;20081;-68
2022/02/21 02:56:22;;;;;;;2.12;1.83;;;;;;;;;;5178346;27;20068;-68
2022/02/21 02:58:48;;;;;;;2.62;2.20;;;;;;;;;;5178343;27;20098;-68
2022/02/21 03:01:14;;;;;;;2.83;2.15;;;;;;;;;;5159700;27;20082;-68
2022/02/21 03:03:40;;;;;;;3.92;2.20;;;;;;;;;;5179613;27;20098;-68
2022/02/21 03:06:07;;;;;;;2.97;2.30;;;;;;;;;;5179924;27;20104;-68
2022/02/21 03:08:33;;;;;;;2.25;2.05;;;;;;;;;;5179563;27;20085;-68
2022/02/21 03:10:59;;;;;;;3.20;2.33;;;;;;;;;;5179545;27;20082;-67
2022/02/21 03:13:25;;;;;;;2.97;2.30;;;;;;;;;;5179664;27;20101;-67
2022/02/21 03:15:51;;;;;;;2.60;2.10;;;;;;;;;;5180248;27;20082;-68
2022/02/21 03:18:17;;;;;;;3.87;2.30;;;;;;;;;;5161120;27;20082;-68
2022/02/21 03:20:43;;;;;;;2.35;2.15;;;;;;;;;;5180108;27;20197;-69
2022/02/21 03:23:09;;;;;;;2.37;2.15;;;;;;;;;;5180229;27;20496;-71
2022/02/21 03:25:35;;;;;;;2.75;2.33;;;;;;;;;;5144162;27;20078;-68
2022/02/21 03:28:02;;;;;;;3.10;2.37;;;;;;;;;;5180231;27;20090;-68
2022/02/21 03:30:28;;;;;;;4.72;2.53;;;;;;;;;;5180364;27;20082;-68
2022/02/21 03:32:54;;;;;;;2.55;2.33;;;;;;;;;;5178820;27;20077;-68
2022/02/21 03:35:20;;;;;;;2.75;2.00;;;;;;;;;;5180315;27;20074;-68
2022/02/21 03:37:46;;;;;;;4.32;2.40;;;;;;;;;;5180491;27;20169;-68
2022/02/21 03:40:13;;;;;;;1.90;1.80;;;;;;;;;;5180242;27;20496;-67
2022/02/21 03:42:39;;;;;;;2.50;1.90;;;;;;;;;;5179721;27;20084;-68
2022/02/21 03:45:06;;;;;;;2.58;2.37;;;;;;;;;;5158926;27;20088;-68
2022/02/21 03:47:32;;;;;;;2.60;2.40;;;;;;;;;;5178037;27;20166;-68
2022/02/21 03:49:58;;;;;;;5.43;2.10;;;;;;;;;;5177967;27;20089;-66
2022/02/21 03:52:24;;;;;;;2.03;1.80;;;;;;;;;;5178057;27;20095;-68
2022/02/21 03:54:50;;;;;;;5.00;2.35;;;;;;;;;;5178028;27;20094;-68
2022/02/21 03:57:17;;;;;;;5.37;2.10;;;;;;;;;;5142026;27;20074;-66
2022/02/21 03:59:43;;;;;;;2.53;2.30;;;;;;;;;;5179963;27;20173;-68
2022/02/21 04:02:09;;;;;;;3.03;2.10;;;;;;;;;;5180037;27;20085;-68
2022/02/21 04:04:35;;;;;;;2.37;2.12;;;;;;;;;;5180034;27;20084;-67
2022/02/21 04:07:01;;;;;;;2.60;2.33;;;;;;;;;;5179980;27;20146;-67
2022/02/21 04:09:27;;;;;;;4.68;2.30;;;;;;;;;;5180104;27;20102;-68
2022/02/21 04:11:53;;;;;;;3.83;2.50;;;;;;;;;;5179635;27;20086;-68
2022/02/21 04:14:19;;;;;;;3.25;2.17;;;;;;;;;;5179862;27;20086;-68
2022/02/21 04:16:45;;;;;;;3.08;2.40;;;;;;;;;;5179856;27;20068;-68
2022/02/21 04:19:11;;;;;;;2.95;2.40;;;;;;;;;;5180195;27;20070;-68
2022/02/21 04:21:38;;;;;;;3.55;2.20;;;;;;;;;;5160887;27;20143;-67
2022/02/21 04:24:04;;;;;;;2.85;2.50;;;;;;;;;;5179885;27;20485;-67
2022/02/21 04:26:30;;;;;;;4.10;2.45;;;;;;;;;;5180124;27;20066;-68
2022/02/21 04:28:56;;;;;;;4.30;2.40;;;;;;;;;;5179939;27;20089;-67
2022/02/21 04:31:22;;;;;;;3.72;2.42;;;;;;;;;;5179789;27;20553;-69
2022/02/21 04:33:48;;;;;;;3.35;2.12;;;;;;;;;;5160686;27;20073;-68
2022/02/21 04:36:15;;;;;;;4.68;2.70;;;;;;;;;;5109184;27;20117;-69
2022/02/21 04:38:42;;;;;;;2.28;2.08;;;;;;;;;;5160909;27;20078;-69
2022/02/21 04:41:08;;;;;;;3.92;2.33;;;;;;;;;;5179919;27;20093;-69
2022/02/21 04:43:35;;;;;;;3.85;2.70;;;;;;;;;;5143917;27;20078;-70
2022/02/21 04:46:01;;;;;;;2.67;2.30;;;;;;;;;;5160734;27;20089;-69
2022/02/21 04:48:28;;;;;;;3.08;2.30;;;;;;;;;;5143559;27;20512;-69
2022/02/21 04:50:54;;;;;;;3.55;2.30;;;;;;;;;;5160567;27;20070;-69
2022/02/21 04:53:21;;;;;;;3.92;3.10;;;;;;;;;;5143731;27;20066;-68
2022/02/21 04:55:47;;;;;;;5.28;3.30;;;;;;;;;;5161014;27;20059;-69
2022/02/21 04:58:13;;;;;;;3.92;2.83;;;;;;;;;;5161146;27;20077;-69
2022/02/21 05:00:39;;;;;;;6.35;2.80;;;;;;;;;;5143762;27;20089;-69
2022/02/21 05:03:05;;;;;;;5.22;2.83;;;;;;;;;;5160767;27;20971;-69
2022/02/21 05:05:32;;;;;;;5.00;2.78;;;;;;;;;;5160594;27;20098;-70
2022/02/21 05:07:58;;;;;;;5.32;2.62;;;;;;;;;;5160601;27;20186;-69
2022/02/21 05:10:26;;;;;;;5.87;2.37;;;;;;;;;;5160518;27;20429;-69
2022/02/21 05:12:52;;;;;;;4.10;2.20;;;;;;;;;;5179567;27;20092;-68
2022/02/21 05:15:18;;;;;;;4.20;2.20;;;;;;;;;;5143185;27;20133;-69
2022/02/21 05:17:44;;;;;;;3.97;2.25;;;;;;;;;;5179470;27;20187;-68
2022/02/21 05:20:11;;;;;;;2.60;1.90;;;;;;;;;;5179533;27;20402;-67
2022/02/21 05:22:38;;;;;;;3.25;2.05;;;;;;;;;;5160789;27;20069;-66
2022/02/21 05:25:05;;;;;;;3.70;1.95;;;;;;;;;;5158501;27;20104;-65
2022/02/21 05:27:35;;;;;;;3.08;1.98;;;;;;;;;;5160346;27;20074;-67
2022/02/21 05:30:02;;;;;;;3.40;2.08;;;;;;;;;;5179241;27;20073;-67
2022/02/21 05:32:29;;;;;;;3.12;2.40;;;;;;;;;;5143289;27;20074;-67
2022/02/21 05:34:55;;;;;;;3.92;2.22;;;;;;;;;;5143156;27;20088;-66
2022/02/21 05:37:22;;;;;;;3.15;2.03;;;;;;;;;;5179072;27;20089;-67
2022/02/21 05:39:48;;;;;;;1.92;1.75;;;;;;;;;;5160187;27;20094;-66
2022/02/21 05:42:14;;;;;;;2.30;2.10;;;;;;;;;;5179260;27;20077;-67
2022/02/21 05:44:41;;;;;;;2.45;2.25;;;;;;;;;;5142538;27;20642;-67
2022/02/21 05:47:07;;;;;;;3.83;2.05;;;;;;;;;;5160431;27;20497;-69
2022/02/21 05:49:33;;;;;;;2.10;1.80;;;;;;;;;;5160573;27;20100;-66
2022/02/21 05:52:00;;;;;;;4.43;2.62;;;;;;;;;;5179339;27;20077;-66
2022/02/21 05:54:26;;;;;;;1.87;1.77;;;;;;;;;;5143176;27;20066;-67
2022/02/21 05:56:52;;;;;;;4.95;2.40;;;;;;;;;;5179595;27;20070;-66
2022/02/21 05:59:18;;;;;;;2.47;2.20;;;;;;;;;;5142949;27;20102;-66
2022/02/21 06:01:45;;;;;;;3.15;2.17;;;;;;;;;;5179147;27;20187;-66
2022/02/21 06:04:11;;;;;;;2.40;2.20;;;;;;;;;;5178945;27;20082;-68
2022/02/21 06:06:37;;;;;;;2.28;2.08;;;;;;;;;;5179108;27;20070;-68
2022/02/21 06:09:04;;;;;;;2.55;2.10;;;;;;;;;;5160211;27;20167;-67
2022/02/21 06:11:30;;;;;;;1.90;1.80;;;;;;;;;;5159912;27;20312;-67
2022/02/21 06:13:56;;;;;;;2.15;1.95;;;;;;;;;;5160218;27;20090;-67
2022/02/21 06:16:22;;;;;;;2.65;2.45;;;;;;;;;;5143169;27;20177;-68
2022/02/21 06:18:49;;;;;;;4.55;2.40;;;;;;;;;;5143106;27;20059;-66
2022/02/21 06:21:15;;;;;;;2.42;2.22;;;;;;;;;;5179022;27;20185;-68
2022/02/21 06:23:41;;;;;;;3.08;2.17;;;;;;;;;;5125611;27;20108;-69
2022/02/21 06:26:07;;;;;;;2.15;1.95;;;;;;;;;;5177593;27;20183;-66
2022/02/21 06:28:34;;;;;;;1.98;1.87;;;;;;;;;;5142542;27;20101;-66
2022/02/21 06:31:00;;;;;;;2.33;2.00;;;;;;;;;;5179240;27;20088;-68
2022/02/21 06:33:26;;;;;;;3.72;2.70;;;;;;;;;;5159823;27;20593;-67
2022/02/21 06:35:52;;;;;;;3.10;2.08;;;;;;;;;;5143316;27;20146;-67
2022/02/21 06:38:18;;;;;;;3.72;1.83;;;;;;;;;;5161313;27;20097;-67
2022/02/21 06:40:45;;;;;;;2.10;1.90;;;;;;;;;;5161720;27;20085;-66
2022/02/21 06:43:11;;;;;;;2.15;1.95;;;;;;;;;;5161260;27;20471;-65
2022/02/21 06:45:37;;;;;;;2.62;1.58;;;;;;;;;;5180888;27;20094;-66
2022/02/21 06:48:04;;;;;;;1.80;1.70;;;;;;;;;;5180296;27;20469;-67
2022/02/21 06:50:30;;;;;;;2.28;2.00;;;;;;;;;;5180380;27;20085;-68
2022/02/21 06:52:56;;;;;;;1.77;1.67;;;;;;;;;;5180279;27;20078;-64
2022/02/21 06:55:23;;;;;;;3.45;2.10;;;;;;;;;;5180027;27;20093;-66
2022/02/21 06:57:49;;;;;;;1.70;1.60;;;;;;;;;;5180227;27;20085;-77
2022/02/21 07:00:17;;;;;;;1.70;1.60;;;;;;;;;;5160912;27;20502;-71
2022/02/21 07:02:43;;;;;;;1.98;1.60;;;;;;;;;;5143733;27;20489;-69
2022/02/21 07:05:10;;;;;;;2.60;1.70;;;;;;;;;;5161902;27;20162;-71
2022/02/21 07:07:36;;;;;;;1.60;1.50;;;;;;;;;;5161125;27;20085;-68
2022/02/21 07:10:04;;;;;;;2.47;1.80;;;;;;;;;;5161484;27;20410;-71
2022/02/21 07:12:30;;;;;;;2.30;1.75;;;;;;;;;;5180682;27;20482;-72
2022/02/21 07:14:56;;;;;;;1.80;1.70;;;;;;;;;;5180506;27;20063;-73
2022/02/21 07:17:22;;;;;;;1.98;1.60;;;;;;;;;;5180524;27;20069;-74
2022/02/21 07:19:49;;;;;;;1.60;1.50;;;;;;;;;;5180374;27;20544;-69
2022/02/21 07:22:16;;;;;;;1.70;1.60;;;;;;;;;;5160643;27;20199;-71
2022/02/21 07:24:42;;;;;;;1.73;1.62;;;;;;;;;;5160692;27;20066;-71
2022/02/21 07:27:08;;;;;;;1.92;1.58;;;;;;;;;;5178492;27;20524;-70
2022/02/21 07:29:36;;;;;;;2.30;1.60;;;;;;;;;;5161358;27;20116;-71
2022/02/21 07:32:06;;;;;;;1.75;1.60;;;;;;;;;;5180103;27;20082;-71
2022/02/21 07:34:32;;;;;;;1.90;1.70;;;;;;;;;;5180120;27;20172;-70
2022/02/21 07:36:58;;;;;;;2.12;1.90;;;;;;;;;;5180046;27;20074;-73
2022/02/21 07:39:25;;;;;;;2.30;2.00;;;;;;;;;;5160740;27;20104;-71
2022/02/21 07:41:51;;;;;;;2.75;2.15;;;;;;;;;;5143464;27;20165;-72
2022/02/21 07:44:17;;;;;;;4.12;1.67;;;;;;;;;;5144069;27;20454;-71
2022/02/21 07:46:43;;;;;;;1.70;1.60;;;;;;;;;;5179785;27;20168;-66
2022/02/21 07:49:09;;;;;;;2.60;1.90;;;;;;;;;;5179804;27;20084;-73
2022/02/21 07:51:35;;;;;;;2.12;1.70;;;;;;;;;;5160940;27;20084;-74
2022/02/21 07:54:01;;;;;;;3.22;2.60;;;;;;;;;;5179996;27;20916;-71
2022/02/21 07:56:27;;;;;;;2.20;2.00;;;;;;;;;;5179791;27;20582;-69
2022/02/21 07:58:53;;;;;;;2.62;1.85;;;;;;;;;;5161195;27;20410;-74
2022/02/21 08:01:19;;;;;;;2.22;1.80;;;;;;;;;;5161346;27;20414;-66
2022/02/21 08:03:46;;;;;;;2.60;1.90;;;;;;;;;;5180229;27;20123;-67
2022/02/21 08:06:12;;;;;;;2.92;1.98;;;;;;;;;;5179746;27;20101;-67
2022/02/21 08:08:39;;;;;;;2.00;1.80;;;;;;;;;;5179605;27;20142;-66
2022/02/21 08:11:05;;;;;;;1.83;1.70;;;;;;;;;;5179963;27;20167;-67
2022/02/21 08:13:31;;;;;;;2.15;1.70;;;;;;;;;;5126129;27;20065;-67
2022/02/21 08:15:57;;;;;;;5.28;1.85;;;;;;;;;;5160875;27;20532;-68
2022/02/21 08:18:25;;;;;;;1.77;1.67;;;;;;;;;;5143304;27;20073;-66
2022/02/21 08:20:51;;;;;;;2.95;2.00;;;;;;;;;;5126454;27;20170;-66
2022/02/21 08:23:17;;;;;;;1.67;1.55;;;;;;;;;;5179938;27;20087;-68
2022/02/21 08:25:43;;;;;;;1.83;1.70;;;;;;;;;;5126501;27;20191;-67
2022/02/21 08:28:09;;;;;;;2.58;1.83;;;;;;;;;;5179957;27;20088;-68
2022/02/21 08:30:36;;;;;;;3.80;1.83;;;;;;;;;;5160674;27;20173;-68
2022/02/21 08:33:02;;;;;;;2.42;1.90;;;;;;;;;;5160613;27;20190;-67
2022/02/21 08:35:28;;;;;;;5.43;4.87;;;;;;;;;;5179463;27;20524;-67
2022/02/21 08:37:54;;;;;;;2.20;1.65;;;;;;;;;;5160565;27;20096;-67
2022/02/21 08:40:22;;;;;;;3.28;1.77;;;;;;;;;;5160981;27;20172;-68
2022/02/21 08:42:48;;;;;;;2.08;1.65;;;;;;;;;;5143561;27;20516;-68
2022/02/21 08:45:14;;;;;;;2.10;1.77;;;;;;;;;;5126232;27;20086;-67
2022/02/21 08:47:41;;;;;;;1.83;1.65;;;;;;;;;;5143769;27;20409;-68
2022/02/21 08:50:12;;;;;;;2.60;2.37;;;;;;;;;;5143444;27;20094;-67
2022/02/21 08:52:40;;;;;;;2.22;1.65;;;;;;;;;;5161113;27;20164;-67
2022/02/21 08:55:11;;;;;;;1.87;1.70;;;;;;;;;;5177456;27;20078;-66
2022/02/21 08:57:38;;;;;;;1.73;1.60;;;;;;;;;;5179372;27;20165;-65
2022/02/21 09:00:05;;;;;;;4.43;2.00;;;;;;;;;;5160343;27;20070;-64
2022/02/21 09:02:32;;;;;;;2.65;2.00;;;;;;;;;;5177675;27;20093;-65
2022/02/21 09:04:58;;;;;;;1.90;1.80;;;;;;;;;;5160774;27;20188;-66
2022/02/21 09:07:24;;;;;;;3.67;2.05;;;;;;;;;;5179380;27;20173;-65
2022/02/21 09:09:50;;;;;;;1.98;1.77;;;;;;;;;;5179421;27;20081;-63
2022/02/21 09:12:16;;;;;;;2.17;1.87;;;;;;;;;;5179519;27;20211;-65
2022/02/21 09:14:50;;;;;;;1.92;1.67;;;;;;;;;;5179402;27;20088;-65
2022/02/21 09:17:17;;;;;;;5.30;2.17;;;;;;;;;;5179555;27;20155;-63
2022/02/21 09:19:44;;;;;;;2.90;1.73;;;;;;;;;;5160660;27;20090;-63
2022/02/21 09:22:11;;;;;;;2.95;2.08;;;;;;;;;;5179448;27;20069;-63
2022/02/21 09:24:38;;;;;;;4.53;2.00;;;;;;;;;;5160388;27;20188;-65
2022/02/21 09:27:04;;;;;;;2.10;1.70;;;;;;;;;;5160516;27;20100;-65
2022/02/21 09:29:30;;;;;;;2.78;1.80;;;;;;;;;;5160223;27;20093;-65
2022/02/21 09:31:58;;;;;;;2.03;1.83;;;;;;;;;;5160060;27;20082;-64
2022/02/21 09:34:25;;;;;;;2.28;2.08;;;;;;;;;;5125956;27;20081;-63
2022/02/21 09:36:51;;;;;;;5.87;2.20;;;;;;;;;;5179239;27;20487;-63
2022/02/21 09:39:17;;;;;;;2.58;2.10;;;;;;;;;;5179442;27;20092;-64
2022/02/21 09:41:43;;;;;;;3.47;2.08;;;;;;;;;;5160021;27;20491;-63
2022/02/21 09:44:10;;;;;;;1.80;1.70;;;;;;;;;;5160722;27;20089;-61
2022/02/21 09:46:38;;;;;;;2.65;1.85;;;;;;;;;;5179336;27;20088;-64
2022/02/21 09:49:08;;;;;;;1.80;1.70;;;;;;;;;;5179373;27;20090;-64
2022/02/21 09:51:34;;;;;;;2.08;1.65;;;;;;;;;;5179447;27;20086;-64
2022/02/21 09:54:01;;;;;;;2.60;1.80;;;;;;;;;;5142729;27;20101;-64
2022/02/21 09:56:27;;;;;;;4.05;2.25;;;;;;;;;;5160666;27;20854;-67
2022/02/21 09:58:55;;;;;;;2.03;1.62;;;;;;;;;;5177750;27;20070;-69
2022/02/21 10:01:24;;;;;;;4.35;2.03;;;;;;;;;;5179195;27;20081;-66
2022/02/21 10:03:54;;;;;;;2.03;1.73;;;;;;;;;;5179366;27;20093;-68
2022/02/21 10:06:26;;;;;;;2.10;1.90;;;;;;;;;;5160721;27;20073;-69
2022/02/21 10:08:56;;;;;;;2.10;1.80;;;;;;;;;;5160303;27;20098;-69
2022/02/21 10:11:30;;;;;;;2.08;1.70;;;;;;;;;;5143435;27;20090;-68
2022/02/21 10:13:59;;;;;;;3.28;1.73;;;;;;;;;;5162416;27;20092;-67
2022/02/21 10:16:26;;;;;;;3.62;1.92;;;;;;;;;;5161860;27;20090;-68
2022/02/21 10:19:08;;;;;;;2.55;1.80;;;;;;;;;;5161628;27;20077;-71
2022/02/21 10:22:01;;;;;;;1.80;1.70;;;;;;;;;;5161426;27;20390;-71
2022/02/21 10:24:38;;;;;;;1.70;1.60;;;;;;;;;;5161517;27;20109;-72
2022/02/21 10:27:07;;;;;;;1.60;1.50;;;;;;;;;;5144688;27;20486;-70
2022/02/21 10:29:46;;;;;;;1.87;1.50;;;;;;;;;;5180642;27;20063;-69
2022/02/21 10:32:13;;;;;;;1.92;1.40;;;;;;;;;;5180984;27;20085;-73
2022/02/21 10:34:42;;;;;;;1.90;1.70;;;;;;;;;;5127362;27;20134;-69
2022/02/21 10:37:08;;;;;;;1.80;1.50;;;;;;;;;;5162027;27;20093;-68
2022/02/21 10:39:35;;;;;;;1.60;1.50;;;;;;;;;;5161544;27;20187;-69
2022/02/21 10:42:06;;;;;;;1.50;1.40;;;;;;;;;;5180553;27;20588;-70
2022/02/21 10:44:38;;;;;;;3.03;1.60;;;;;;;;;;5160290;27;20503;-69
2022/02/21 10:47:13;;;;;;;2.15;1.65;;;;;;;;;;5162245;27;20054;-68
2022/02/21 10:49:49;;;;;;;1.60;1.50;;;;;;;;;;5143812;27;20406;-69
2022/02/21 10:52:23;;;;;;;2.42;1.45;;;;;;;;;;5163490;27;20101;-72
2022/02/21 10:54:50;;;;;;;3.58;1.60;;;;;;;;;;5180583;27;20082;-72
2022/02/21 10:57:18;;;;;;;2.25;1.65;;;;;;;;;;5180464;27;20066;-70
2022/02/21 10:59:44;;;;;;;1.92;1.58;;;;;;;;;;5144280;27;20409;-68
2022/02/21 11:02:15;;;;;;;1.40;1.30;;;;;;;;;;5161436;27;20062;-69
2022/02/21 11:04:42;;;;;;;4.45;3.67;;;;;;;;;;5161940;27;20469;-75
2022/02/21 11:07:10;;;;;;;1.75;1.62;;;;;;;;;;5161744;27;20082;-79
2022/02/21 11:09:38;;;;;;;1.40;1.30;;;;;;;;;;5180565;27;20090;-78
2022/02/21 11:12:05;;;;;;;2.45;1.58;;;;;;;;;;5162557;27;20098;-75
2022/02/21 11:14:34;;;;;;;2.22;1.62;;;;;;;;;;5161725;27;20529;-74
2022/02/21 11:17:02;;;;;;;3.05;1.37;;;;;;;;;;5161351;27;20074;-76
2022/02/21 11:19:29;;;;;;;2.30;1.70;;;;;;;;;;5161051;27;20458;-76
2022/02/21 11:21:56;;;;;;;1.60;1.50;;;;;;;;;;5143280;27;20105;-76
2022/02/21 11:24:28;;;;;;;2.42;1.60;;;;;;;;;;5178753;27;20084;-76
2022/02/21 11:27:16;;;;;;;1.70;1.60;;;;;;;;;;5161242;27;20113;-72
2022/02/21 11:29:48;;;;;;;1.80;1.70;;;;;;;;;;5161386;27;20082;-75
2022/02/21 11:32:21;;;;;;;2.42;1.60;;;;;;;;;;5143631;27;20101;-76
2022/02/21 11:35:20;;;;;;;1.60;1.50;;;;;;;;;;5180030;27;20500;-77
2022/02/21 11:37:47;;;;;;;2.03;1.83;;;;;;;;;;5159691;27;20098;-76
2022/02/21 11:40:14;;;;;;;2.20;2.00;;;;;;;;;;5161138;27;20204;-78
2022/02/21 11:42:40;;;;;;;1.70;1.50;;;;;;;;;;5160952;27;20070;-76
2022/02/21 11:45:24;;;;;;;1.75;1.50;;;;;;;;;;5143626;27;20080;-76
2022/02/21 11:47:52;;;;;;;2.17;1.75;;;;;;;;;;5160931;27;20081;-77
2022/02/21 11:50:19;;;;;;;2.62;1.62;;;;;;;;;;5160907;27;20483;-76
2022/02/21 11:52:49;;;;;;;2.03;1.83;;;;;;;;;;5160080;27;20121;-77
2022/02/21 11:55:38;;;;;;;2.40;2.20;;;;;;;;;;5160605;27;20097;-79
2022/02/21 11:58:13;;;;;;;2.78;1.77;;;;;;;;;;5160012;27;20053;-78
2022/02/21 12:00:41;;;;;;;4.53;2.90;;;;;;;;;;5180242;27;20478;-78
2022/02/21 12:03:07;;;;;;;1.92;1.70;;;;;;;;;;5180502;27;20070;-79
2022/02/21 12:05:33;;;;;;;2.17;1.90;;;;;;;;;;5180621;27;20477;-79
2022/02/21 12:07:59;;;;;;;2.90;2.40;;;;;;;;;;5180201;27;20476;-78
2022/02/21 12:10:26;;;;;;;3.15;2.12;;;;;;;;;;5179832;27;20097;-79
2022/02/21 12:12:59;;;;;;;2.95;2.00;;;;;;;;;;5179532;27;20078;-78
2022/02/21 12:15:31;;;;;;;4.12;2.12;;;;;;;;;;5161299;27;20073;-78
2022/02/21 12:18:08;;;;;;;2.08;1.70;;;;;;;;;;5179989;27;20088;-77
2022/02/21 12:20:36;;;;;;;1.92;1.83;;;;;;;;;;5180493;27;20172;-77
2022/02/21 12:23:06;;;;;;;3.97;2.00;;;;;;;;;;5161619;27;20133;-79
2022/02/21 12:25:40;;;;;;;2.47;2.10;;;;;;;;;;5160896;27;20090;-78
2022/02/21 12:28:17;;;;;;;3.53;2.22;;;;;;;;;;5162347;27;20101;-77
2022/02/21 12:30:54;;;;;;;2.33;2.00;;;;;;;;;;5180162;27;20074;-76
2022/02/21 12:33:26;;;;;;;5.10;2.15;;;;;;;;;;5178339;27;20096;-77
2022/02/21 12:35:58;;;;;;;2.22;1.95;;;;;;;;;;5160727;27;20153;-76
2022/02/21 12:38:28;;;;;;;2.58;2.08;;;;;;;;;;5160899;27;20194;-78
2022/02/21 12:41:05;;;;;;;3.25;2.33;;;;;;;;;;5143589;27;20076;-76
2022/02/21 12:43:49;;;;;;;4.28;2.20;;;;;;;;;;5179819;27;20102;-76
2022/02/21 12:46:17;;;;;;;2.87;2.00;;;;;;;;;;5126671;27;20093;-76
2022/02/21 12:48:44;;;;;;;4.03;3.17;;;;;;;;;;5178641;27;20098;-75
2022/02/21 12:51:20;;;;;;;3.05;2.15;;;;;;;;;;5160349;27;20167;-75
2022/02/21 12:53:58;;;;;;;2.85;2.22;;;;;;;;;;5144368;27;20073;-73
2022/02/21 12:56:26;;;;;;;6.37;2.25;;;;;;;;;;5160836;27;20090;-74
2022/02/21 12:58:52;;;;;;;7.72;2.17;;;;;;;;;;5160370;27;20171;-75
2022/02/21 13:01:21;;;;;;;3.22;2.40;;;;;;;;;;5179430;27;20080;-76
2022/02/21 13:03:55;;;;;;;3.12;2.35;;;;;;;;;;5143061;27;20176;-75
2022/02/21 13:06:22;;;;;;;3.17;2.17;;;;;;;;;;5160750;27;20171;-74
2022/02/21 13:08:48;;;;;;;3.30;2.28;;;;;;;;;;5179272;27;20086;-77
2022/02/21 13:11:34;;;;;;;3.10;2.53;;;;;;;;;;5179443;27;20081;-76
2022/02/21 13:14:01;;;;;;;4.05;2.28;;;;;;;;;;5160154;27;20082;-76
2022/02/21 13:16:29;;;;;;;3.35;2.50;;;;;;;;;;5143096;27;20085;-73
2022/02/21 13:19:02;;;;;;;2.30;2.10;;;;;;;;;;5143128;27;20185;-76
2022/02/21 13:21:35;;;;;;;4.47;2.45;;;;;;;;;;5160305;27;20172;-76
2022/02/21 13:24:06;;;;;;;5.47;3.03;;;;;;;;;;5160415;27;20186;-73
2022/02/21 13:26:54;;;;;;;6.95;3.62;;;;;;;;;;5179105;27;20062;-74
2022/02/21 13:29:22;;;;;;;4.00;2.87;;;;;;;;;;5179176;27;20491;-72
2022/02/21 13:31:48;;;;;;;3.60;3.00;;;;;;;;;;5178615;27;20090;-72
2022/02/21 13:34:14;;;;;;;4.32;2.30;;;;;;;;;;5177866;27;20082;-74
2022/02/21 13:36:40;;;;;;;4.32;2.70;;;;;;;;;;5179136;27;20089;-72
2022/02/21 13:39:06;;;;;;;5.00;2.33;;;;;;;;;;5178207;27;20174;-73
2022/02/21 13:41:53;;;;;;;4.65;2.83;;;;;;;;;;5160254;27;20578;-67
2022/02/21 13:44:23;;;;;;;5.43;3.10;;;;;;;;;;5178535;27;20097;-74
2022/02/21 13:46:49;;;;;;;3.35;2.72;;;;;;;;;;5160277;27;20398;-74
2022/02/21 13:49:15;;;;;;;5.22;3.55;;;;;;;;;;5142860;27;20284;-74
2022/02/21 13:51:41;;;;;;;6.40;3.47;;;;;;;;;;5179095;27;20078;-73
2022/02/21 13:54:29;;;;;;;9.20;3.90;;;;;;;;;;5178970;27;20085;-77
2022/02/21 13:57:16;;;;;;;6.72;3.95;;;;;;;;;;5179339;27;20078;-77
2022/02/21 13:59:49;;;;;;;4.80;3.12;;;;;;;;;;5160178;27;20082;-77
2022/02/21 14:02:27;;;;;;;4.53;3.10;;;;;;;;;;5160050;27;20567;-78
2022/02/21 14:05:07;;;;;;;4.35;3.28;;;;;;;;;;5160067;27;20065;-77
2022/02/21 14:07:34;;;;;;;8.85;3.00;;;;;;;;;;5159833;27;20078;-74
2022/02/21 14:10:08;;;;;;;3.20;2.75;;;;;;;;;;5160396;27;20084;-69
2022/02/21 14:12:34;;;;;;;4.22;2.70;;;;;;;;;;5159963;27;20178;-69
2022/02/21 14:15:00;;;;;;;4.53;2.90;;;;;;;;;;5159809;27;20117;-70
2022/02/21 14:17:26;;;;;;;3.55;2.85;;;;;;;;;;5160138;27;20085;-69
2022/02/21 14:19:52;;;;;;;4.72;2.78;;;;;;;;;;5178833;27;20066;-69
2022/02/21 14:22:26;;;;;;;3.33;2.70;;;;;;;;;;5125918;27;20165;-69
2022/02/21 14:24:52;;;;;;;4.87;3.20;;;;;;;;;;5159910;27;20068;-69
2022/02/21 14:27:18;;;;;;;4.00;2.78;;;;;;;;;;5179187;27;20244;-67
2022/02/21 14:29:45;;;;;;;4.60;3.20;;;;;;;;;;5178946;27;20071;-69
2022/02/21 14:32:11;;;;;;;3.37;2.60;;;;;;;;;;5142847;27;20086;-69
2022/02/21 14:34:37;;;;;;;3.58;3.00;;;;;;;;;;5159684;27;20747;-71
2022/02/21 14:37:03;;;;;;;5.82;4.57;;;;;;;;;;5178965;27;20081;-70
2022/02/21 14:39:29;;;;;;;4.28;3.45;;;;;;;;;;5178726;27;20069;-70
2022/02/21 14:41:55;;;;;;;7.53;3.08;;;;;;;;;;5178834;27;20062;-69
2022/02/21 14:44:22;;;;;;;5.78;3.37;;;;;;;;;;5142279;27;20145;-70
2022/02/21 14:46:48;;;;;;;6.05;3.10;;;;;;;;;;5159461;27;20414;-69
2022/02/21 14:49:14;;;;;;;4.15;3.05;;;;;;;;;;5178684;27;20385;-70
2022/02/21 14:51:41;;;;;;;5.62;2.95;;;;;;;;;;5178831;27;20138;-70
2022/02/21 14:54:07;;;;;;;4.85;3.05;;;;;;;;;;5141911;27;20090;-69
2022/02/21 14:56:33;;;;;;;4.72;3.20;;;;;;;;;;5178842;27;20100;-70
2022/02/21 14:59:01;;;;;;;4.15;3.42;;;;;;;;;;5161095;27;20095;-69
2022/02/21 15:01:28;;;;;;;4.32;2.92;;;;;;;;;;5161351;27;20078;-74
2022/02/21 15:03:54;;;;;;;4.80;3.10;;;;;;;;;;5161294;27;20432;-67
2022/02/21 15:06:20;;;;;;;5.12;3.78;;;;;;;;;;5180496;27;20085;-66